IGO171 VOMM-VOBL
Flight info
| Callsign | IGO171 |
|---|---|
| Flight time | 0h 36m |
| Altitude | 24000 |
| Route | KKP DCT BUTLA DCT XIVIL XIVIL7E |
| Aircraft | A20N/M-SDE2E3FGHIRWXY/LB1 |
Departure
| Time | 2026-04-20 13:00 |
|---|---|
| Airport | Chennai International Airport (VOMM) |
Arrival
| Time | 2026-04-20 13:36 |
|---|---|
| Airport | Kempegowda International Airport Bengaluru (VOBL) |
| Time | Latitude | Longitude | Altitude | Speed | Heading |
|---|---|---|---|---|---|
| 2026-04-20 12:23 | 12.98621 | 80.16640 | 56 ft | 0 kts | 341° |
| 2026-04-20 12:53 | 12.98619 | 80.16641 | 56 ft | 1 kts | 341° |
| 2026-04-20 12:53 | 12.98613 | 80.16643 | 56 ft | 1 kts | 341° |
| 2026-04-20 12:53 | 12.98610 | 80.16644 | 56 ft | 1 kts | 342° |
| 2026-04-20 12:54 | 12.98604 | 80.16646 | 49 ft | 1 kts | 342° |
| 2026-04-20 12:54 | 12.98597 | 80.16648 | 50 ft | 1 kts | 342° |
| 2026-04-20 12:54 | 12.98584 | 80.16653 | 54 ft | 3 kts | 341° |
| 2026-04-20 12:54 | 12.98563 | 80.16661 | 49 ft | 3 kts | 310° |
| 2026-04-20 12:55 | 12.98558 | 80.16673 | 53 ft | 0 kts | 253° |
| 2026-04-20 12:55 | 12.98558 | 80.16672 | 52 ft | 2 kts | 255° |
| 2026-04-20 12:55 | 12.98533 | 80.16601 | 52 ft | 19 kts | 245° |
| 2026-04-20 12:55 | 12.98464 | 80.16438 | 54 ft | 29 kts | 253° |
| 2026-04-20 12:56 | 12.98397 | 80.16243 | 52 ft | 28 kts | 249° |
| 2026-04-20 12:56 | 12.98326 | 80.16056 | 51 ft | 28 kts | 249° |
| 2026-04-20 12:56 | 12.98289 | 80.15909 | 53 ft | 4 kts | 282° |
| 2026-04-20 12:56 | 12.98308 | 80.15838 | 51 ft | 16 kts | 287° |
| 2026-04-20 12:57 | 12.98347 | 80.15711 | 51 ft | 20 kts | 287° |
| 2026-04-20 12:57 | 12.98392 | 80.15564 | 49 ft | 23 kts | 286° |
| 2026-04-20 12:57 | 12.98466 | 80.15453 | 52 ft | 13 kts | 16° |
| 2026-04-20 12:57 | 12.98479 | 80.15469 | 50 ft | 1 kts | 64° |
| 2026-04-20 12:58 | 12.98496 | 80.15510 | 52 ft | 15 kts | 68° |
| 2026-04-20 12:58 | 12.98505 | 80.15533 | 53 ft | 4 kts | 69° |
| 2026-04-20 12:58 | 12.98520 | 80.15575 | 51 ft | 8 kts | 70° |
| 2026-04-20 12:58 | 12.98542 | 80.15637 | 51 ft | 11 kts | 70° |
| 2026-04-20 12:59 | 12.98572 | 80.15716 | 48 ft | 13 kts | 68° |
| 2026-04-20 12:59 | 12.98608 | 80.15809 | 51 ft | 15 kts | 68° |
| 2026-04-20 12:59 | 12.98691 | 80.16027 | 52 ft | 65 kts | 68° |
| 2026-04-20 12:59 | 12.98929 | 80.16665 | 53 ft | 124 kts | 69° |
| 2026-04-20 13:00 | 12.99299 | 80.17639 | 62 ft | 168 kts | 69° |
| 2026-04-20 13:00 | 12.99732 | 80.18742 | 547 ft | 172 kts | 71° |
| 2026-04-20 13:00 | 13.00212 | 80.19917 | 1070 ft | 179 kts | 70° |
| 2026-04-20 13:00 | 13.00700 | 80.21071 | 1761 ft | 174 kts | 71° |
| 2026-04-20 13:01 | 13.01077 | 80.22226 | 2374 ft | 168 kts | 93° |
| 2026-04-20 13:01 | 13.00615 | 80.23228 | 2822 ft | 162 kts | 150° |
| 2026-04-20 13:01 | 12.99542 | 80.23599 | 3233 ft | 170 kts | 172° |
| 2026-04-20 13:01 | 12.98296 | 80.23564 | 3491 ft | 189 kts | 189° |
| 2026-04-20 13:02 | 12.97081 | 80.23124 | 4220 ft | 184 kts | 206° |
| 2026-04-20 13:02 | 12.96033 | 80.22342 | 4745 ft | 197 kts | 223° |
| 2026-04-20 13:02 | 12.95238 | 80.21121 | 5098 ft | 218 kts | 245° |
| 2026-04-20 13:02 | 12.94686 | 80.19583 | 5337 ft | 244 kts | 252° |
| 2026-04-20 13:03 | 12.94161 | 80.17848 | 5655 ft | 266 kts | 253° |
| 2026-04-20 13:03 | 12.93592 | 80.15966 | 6048 ft | 285 kts | 252° |
| 2026-04-20 13:03 | 12.92975 | 80.14007 | 6710 ft | 292 kts | 252° |
| 2026-04-20 13:03 | 12.92321 | 80.12010 | 7359 ft | 298 kts | 251° |
| 2026-04-20 13:04 | 12.91642 | 80.09991 | 7659 ft | 301 kts | 251° |
| 2026-04-20 13:04 | 12.90953 | 80.07965 | 7758 ft | 301 kts | 251° |
| 2026-04-20 13:04 | 12.90309 | 80.06079 | 7857 ft | 303 kts | 251° |
| 2026-04-20 13:04 | 12.89608 | 80.03983 | 8378 ft | 307 kts | 251° |
| 2026-04-20 13:05 | 12.88907 | 80.01930 | 9258 ft | 306 kts | 250° |
| 2026-04-20 13:05 | 12.88203 | 79.99881 | 9937 ft | 311 kts | 250° |
| 2026-04-20 13:05 | 12.87465 | 79.97727 | 10247 ft | 332 kts | 250° |
| 2026-04-20 13:05 | 12.86679 | 79.95424 | 10452 ft | 353 kts | 250° |
| 2026-04-20 13:06 | 12.85857 | 79.93005 | 10904 ft | 363 kts | 250° |
| 2026-04-20 13:06 | 12.85023 | 79.90543 | 11572 ft | 367 kts | 250° |
| 2026-04-20 13:06 | 12.84185 | 79.88065 | 12246 ft | 370 kts | 250° |
| 2026-04-20 13:06 | 12.83338 | 79.85563 | 12910 ft | 374 kts | 250° |
| 2026-04-20 13:07 | 12.82481 | 79.83032 | 13564 ft | 377 kts | 250° |
| 2026-04-20 13:07 | 12.81616 | 79.80482 | 14146 ft | 381 kts | 250° |
| 2026-04-20 13:07 | 12.80745 | 79.77918 | 14761 ft | 382 kts | 250° |
| 2026-04-20 13:07 | 12.79865 | 79.75334 | 15370 ft | 385 kts | 250° |
| 2026-04-20 13:08 | 12.79136 | 79.72697 | 15948 ft | 388 kts | 261° |
| 2026-04-20 13:08 | 12.79057 | 79.69940 | 16562 ft | 388 kts | 276° |
| 2026-04-20 13:08 | 12.79660 | 79.67257 | 17184 ft | 388 kts | 288° |
| 2026-04-20 13:08 | 12.80514 | 79.64627 | 17768 ft | 390 kts | 288° |
| 2026-04-20 13:09 | 12.81374 | 79.61985 | 18324 ft | 392 kts | 288° |
| 2026-04-20 13:09 | 12.82176 | 79.59440 | 18798 ft | 393 kts | 287° |
| 2026-04-20 13:09 | 12.83063 | 79.56654 | 19311 ft | 395 kts | 287° |
| 2026-04-20 13:09 | 12.83862 | 79.53992 | 19783 ft | 397 kts | 286° |
| 2026-04-20 13:10 | 12.84732 | 79.51417 | 20251 ft | 399 kts | 291° |
| 2026-04-20 13:10 | 12.85937 | 79.48849 | 20720 ft | 402 kts | 299° |
| 2026-04-20 13:10 | 12.87490 | 79.46464 | 21175 ft | 404 kts | 307° |
| 2026-04-20 13:10 | 12.89236 | 79.44192 | 21629 ft | 407 kts | 308° |
| 2026-04-20 13:11 | 12.91018 | 79.41931 | 22083 ft | 409 kts | 308° |
| 2026-04-20 13:11 | 12.92812 | 79.39655 | 22531 ft | 411 kts | 308° |
| 2026-04-20 13:11 | 12.94605 | 79.37362 | 22975 ft | 413 kts | 307° |
| 2026-04-20 13:11 | 12.96400 | 79.35046 | 23395 ft | 416 kts | 307° |
| 2026-04-20 13:12 | 12.98198 | 79.32712 | 23697 ft | 419 kts | 307° |
| 2026-04-20 13:12 | 13.00002 | 79.30360 | 23814 ft | 420 kts | 307° |
| 2026-04-20 13:12 | 13.01782 | 79.28037 | 23845 ft | 420 kts | 307° |
| 2026-04-20 13:12 | 13.03583 | 79.25683 | 23847 ft | 420 kts | 306° |
| 2026-04-20 13:13 | 13.05385 | 79.23326 | 23850 ft | 420 kts | 306° |
| 2026-04-20 13:13 | 13.07183 | 79.20972 | 23856 ft | 420 kts | 306° |
| 2026-04-20 13:13 | 13.08994 | 79.18601 | 23856 ft | 427 kts | 306° |
| 2026-04-20 13:13 | 13.10850 | 79.16168 | 23858 ft | 439 kts | 306° |
| 2026-04-20 13:14 | 13.12676 | 79.13775 | 23859 ft | 450 kts | 306° |
| 2026-04-20 13:14 | 13.14703 | 79.11123 | 23860 ft | 460 kts | 307° |
| 2026-04-20 13:14 | 13.16609 | 79.08627 | 23860 ft | 470 kts | 307° |
| 2026-04-20 13:14 | 13.18731 | 79.05851 | 23863 ft | 479 kts | 307° |
| 2026-04-20 13:15 | 13.20772 | 79.03176 | 23866 ft | 486 kts | 307° |
| 2026-04-20 13:15 | 13.22873 | 79.00422 | 23865 ft | 493 kts | 307° |
| 2026-04-20 13:15 | 13.24999 | 78.97634 | 23868 ft | 499 kts | 306° |
| 2026-04-20 13:15 | 13.26930 | 78.94676 | 23866 ft | 498 kts | 297° |
| 2026-04-20 13:16 | 13.28264 | 78.91411 | 23864 ft | 496 kts | 285° |
| 2026-04-20 13:16 | 13.28944 | 78.87945 | 23872 ft | 495 kts | 274° |
| 2026-04-20 13:16 | 13.28953 | 78.84421 | 23876 ft | 494 kts | 264° |
| 2026-04-20 13:16 | 13.28617 | 78.80915 | 23877 ft | 493 kts | 263° |
| 2026-04-20 13:17 | 13.28306 | 78.77711 | 23883 ft | 474 kts | 264° |
| 2026-04-20 13:17 | 13.28010 | 78.74240 | 23884 ft | 451 kts | 265° |
| 2026-04-20 13:17 | 13.27777 | 78.71114 | 23889 ft | 430 kts | 265° |
| 2026-04-20 13:17 | 13.27615 | 78.68813 | 23887 ft | 415 kts | 265° |
| 2026-04-20 13:18 | 13.27417 | 78.65906 | 23893 ft | 406 kts | 265° |
| 2026-04-20 13:18 | 13.26846 | 78.57598 | 23899 ft | 413 kts | 265° |
| 2026-04-20 13:19 | 13.26636 | 78.54656 | 23905 ft | 414 kts | 265° |
| 2026-04-20 13:19 | 13.26425 | 78.51715 | 23902 ft | 414 kts | 265° |
| 2026-04-20 13:19 | 13.26217 | 78.48776 | 23859 ft | 412 kts | 266° |
| 2026-04-20 13:19 | 13.26231 | 78.45837 | 23515 ft | 413 kts | 274° |
| 2026-04-20 13:20 | 13.26590 | 78.42898 | 22706 ft | 418 kts | 279° |
| 2026-04-20 13:20 | 13.27114 | 78.39933 | 21725 ft | 425 kts | 280° |
| 2026-04-20 13:20 | 13.27648 | 78.36949 | 21042 ft | 423 kts | 279° |
| 2026-04-20 13:20 | 13.28158 | 78.33996 | 20437 ft | 419 kts | 279° |
| 2026-04-20 13:21 | 13.28638 | 78.31102 | 19892 ft | 414 kts | 279° |
| 2026-04-20 13:21 | 13.29106 | 78.28196 | 19327 ft | 410 kts | 279° |
| 2026-04-20 13:21 | 13.29562 | 78.25311 | 18762 ft | 407 kts | 279° |
| 2026-04-20 13:21 | 13.30010 | 78.22446 | 18183 ft | 405 kts | 279° |
| 2026-04-20 13:22 | 13.30388 | 78.19593 | 17561 ft | 401 kts | 275° |
| 2026-04-20 13:22 | 13.30506 | 78.16753 | 17036 ft | 396 kts | 271° |
| 2026-04-20 13:22 | 13.30546 | 78.13942 | 16496 ft | 392 kts | 270° |
| 2026-04-20 13:22 | 13.30572 | 78.11164 | 15957 ft | 388 kts | 270° |
| 2026-04-20 13:23 | 13.30598 | 78.08421 | 15421 ft | 385 kts | 270° |
| 2026-04-20 13:23 | 13.30628 | 78.05662 | 14883 ft | 383 kts | 270° |
| 2026-04-20 13:23 | 13.30660 | 78.02932 | 14308 ft | 382 kts | 271° |
| 2026-04-20 13:23 | 13.30695 | 78.00258 | 13814 ft | 379 kts | 271° |
| 2026-04-20 13:24 | 13.30731 | 77.97555 | 13274 ft | 377 kts | 271° |
| 2026-04-20 13:24 | 13.30769 | 77.94877 | 12751 ft | 373 kts | 271° |
| 2026-04-20 13:24 | 13.30807 | 77.92223 | 12242 ft | 370 kts | 271° |
| 2026-04-20 13:24 | 13.30844 | 77.89614 | 12003 ft | 360 kts | 270° |
| 2026-04-20 13:25 | 13.30881 | 77.87227 | 11950 ft | 361 kts | 271° |
| 2026-04-20 13:25 | 13.30919 | 77.84634 | 11936 ft | 363 kts | 270° |
| 2026-04-20 13:25 | 13.30952 | 77.82052 | 11926 ft | 362 kts | 270° |
| 2026-04-20 13:25 | 13.30984 | 77.79498 | 11927 ft | 362 kts | 270° |
| 2026-04-20 13:26 | 13.31016 | 77.76913 | 11895 ft | 363 kts | 270° |
| 2026-04-20 13:26 | 13.31042 | 77.74317 | 11634 ft | 364 kts | 270° |
| 2026-04-20 13:26 | 13.31063 | 77.71717 | 11085 ft | 367 kts | 270° |
| 2026-04-20 13:26 | 13.31084 | 77.69077 | 10319 ft | 373 kts | 270° |
| 2026-04-20 13:27 | 13.31106 | 77.66405 | 9736 ft | 373 kts | 270° |
| 2026-04-20 13:27 | 13.31128 | 77.63796 | 9541 ft | 359 kts | 270° |
| 2026-04-20 13:27 | 13.31148 | 77.61282 | 9394 ft | 345 kts | 270° |
| 2026-04-20 13:27 | 13.31166 | 77.58872 | 9256 ft | 331 kts | 270° |
| 2026-04-20 13:28 | 13.31184 | 77.56557 | 9130 ft | 318 kts | 270° |
| 2026-04-20 13:28 | 13.31198 | 77.54331 | 8946 ft | 308 kts | 270° |
| 2026-04-20 13:28 | 13.31212 | 77.52147 | 8580 ft | 305 kts | 270° |
| 2026-04-20 13:28 | 13.31226 | 77.50006 | 8196 ft | 303 kts | 269° |
| 2026-04-20 13:29 | 13.31241 | 77.47843 | 7812 ft | 302 kts | 269° |
| 2026-04-20 13:29 | 13.31187 | 77.45703 | 7453 ft | 299 kts | 258° |
| 2026-04-20 13:29 | 13.30430 | 77.43756 | 7107 ft | 293 kts | 232° |
| 2026-04-20 13:29 | 13.28956 | 77.42388 | 6831 ft | 283 kts | 205° |
| 2026-04-20 13:30 | 13.27067 | 77.41889 | 6806 ft | 285 kts | 180° |
| 2026-04-20 13:30 | 13.25082 | 77.41867 | 6805 ft | 285 kts | 178° |
| 2026-04-20 13:30 | 13.23154 | 77.42032 | 6788 ft | 270 kts | 162° |
| 2026-04-20 13:30 | 13.21583 | 77.42912 | 6779 ft | 249 kts | 133° |
| 2026-04-20 13:31 | 13.20771 | 77.44361 | 6768 ft | 238 kts | 99° |
| 2026-04-20 13:31 | 13.20693 | 77.46002 | 6771 ft | 223 kts | 88° |
| 2026-04-20 13:31 | 13.20759 | 77.47527 | 6785 ft | 203 kts | 89° |
| 2026-04-20 13:31 | 13.20785 | 77.48928 | 6612 ft | 192 kts | 91° |
| 2026-04-20 13:32 | 13.20778 | 77.50271 | 6377 ft | 184 kts | 92° |
| 2026-04-20 13:32 | 13.20772 | 77.51565 | 6138 ft | 178 kts | 92° |
| 2026-04-20 13:32 | 13.20766 | 77.52806 | 5912 ft | 171 kts | 92° |
| 2026-04-20 13:32 | 13.20758 | 77.54112 | 5706 ft | 196 kts | 92° |
| 2026-04-20 13:33 | 13.20754 | 77.55498 | 5446 ft | 196 kts | 92° |
| 2026-04-20 13:33 | 13.20747 | 77.56883 | 5197 ft | 191 kts | 92° |
| 2026-04-20 13:33 | 13.20743 | 77.58217 | 4956 ft | 183 kts | 92° |
| 2026-04-20 13:33 | 13.20739 | 77.59455 | 4757 ft | 163 kts | 92° |
| 2026-04-20 13:34 | 13.20735 | 77.60555 | 4548 ft | 146 kts | 93° |
| 2026-04-20 13:34 | 13.20729 | 77.61586 | 4373 ft | 144 kts | 93° |
| 2026-04-20 13:34 | 13.20726 | 77.62604 | 4194 ft | 142 kts | 93° |
| 2026-04-20 13:34 | 13.20723 | 77.63610 | 4014 ft | 140 kts | 93° |
| 2026-04-20 13:35 | 13.20719 | 77.64616 | 3840 ft | 142 kts | 93° |
| 2026-04-20 13:35 | 13.20715 | 77.65551 | 3684 ft | 140 kts | 93° |
| 2026-04-20 13:35 | 13.20711 | 77.66545 | 3509 ft | 143 kts | 92° |
| 2026-04-20 13:35 | 13.20706 | 77.67560 | 3310 ft | 142 kts | 92° |
| 2026-04-20 13:36 | 13.20703 | 77.68572 | 3119 ft | 141 kts | 92° |
| 2026-04-20 13:36 | 13.20697 | 77.69566 | 2994 ft | 133 kts | 91° |
| 2026-04-20 13:36 | 13.20698 | 77.70362 | 2971 ft | 66 kts | 85° |
| 2026-04-20 13:36 | 13.20698 | 77.70559 | 2966 ft | 13 kts | 99° |
| 2026-04-20 13:37 | 13.20686 | 77.70747 | 2962 ft | 34 kts | 89° |
| 2026-04-20 13:37 | 13.20646 | 77.70974 | 2951 ft | 32 kts | 115° |
| 2026-04-20 13:37 | 13.20604 | 77.71066 | 2947 ft | 0 kts | 116° |
| 2026-04-20 13:38 | 13.20594 | 77.71083 | 2952 ft | 8 kts | 121° |
| 2026-04-20 13:38 | 13.20539 | 77.71160 | 2952 ft | 15 kts | 142° |
| 2026-04-20 13:38 | 13.20482 | 77.71164 | 2947 ft | 6 kts | 288° |
| 2026-04-20 13:38 | 13.20514 | 77.71138 | 2948 ft | 6 kts | 309° |
| 2026-04-20 13:39 | 13.20524 | 77.71082 | 2951 ft | 11 kts | 275° |
| 2026-04-20 13:39 | 13.20526 | 77.70975 | 2956 ft | 19 kts | 270° |
| 2026-04-20 13:39 | 13.20527 | 77.70824 | 2960 ft | 23 kts | 271° |
| 2026-04-20 13:39 | 13.20529 | 77.70662 | 2956 ft | 24 kts | 270° |
| 2026-04-20 13:40 | 13.20530 | 77.70483 | 2968 ft | 26 kts | 272° |
| 2026-04-20 13:40 | 13.20448 | 77.70393 | 2970 ft | 16 kts | 168° |
| 2026-04-20 13:40 | 13.20334 | 77.70404 | 2969 ft | 17 kts | 180° |
| 2026-04-20 13:40 | 13.20269 | 77.70427 | 2969 ft | 7 kts | 108° |
| 2026-04-20 13:41 | 13.20268 | 77.70506 | 2967 ft | 14 kts | 92° |
| 2026-04-20 13:41 | 13.20267 | 77.70532 | 2966 ft | 0 kts | 92° |
| 2026-04-20 13:41 | 13.20267 | 77.70551 | 2954 ft | 12 kts | 91° |
| 2026-04-20 13:41 | 13.20264 | 77.70691 | 2963 ft | 23 kts | 91° |
| 2026-04-20 13:42 | 13.20264 | 77.70892 | 2958 ft | 31 kts | 89° |
| 2026-04-20 13:42 | 13.20217 | 77.71164 | 2952 ft | 4 kts | 191° |
| 2026-04-20 13:42 | 13.20206 | 77.71164 | 2952 ft | 3 kts | 180° |
| 2026-04-20 13:43 | 13.20172 | 77.71162 | 2948 ft | 6 kts | 182° |
| 2026-04-20 13:43 | 13.20166 | 77.71162 | 2952 ft | 0 kts | 181° |